createdAt,value
2022-10-05T00:00:20.298Z,98602.69
2022-10-05T00:02:23.073Z,98604.53
2022-10-05T00:04:25.786Z,98587.56
2022-10-05T00:06:28.984Z,98601.84
2022-10-05T00:08:32.364Z,98601.16
2022-10-05T00:10:34.104Z,98596.66
2022-10-05T00:12:35.844Z,98606.41
2022-10-05T00:14:37.509Z,98604.72
2022-10-05T00:16:39.196Z,98592.94
2022-10-05T00:18:41.213Z,98587.56
2022-10-05T00:20:43.293Z,98594.09
2022-10-05T00:22:44.980Z,98587.56
2022-10-05T00:24:47.595Z,98588.41
2022-10-05T00:26:51.741Z,98594.94
2022-10-05T00:28:57.218Z,98594.63
2022-10-05T00:30:59.533Z,98587.56
2022-10-05T00:33:01.208Z,98589.25
2022-10-05T00:35:02.940Z,98599.50
2022-10-05T00:37:05.545Z,98602.88
2022-10-05T00:39:07.199Z,98595.63
2022-10-05T00:41:13.388Z,98589.41
2022-10-05T00:43:44.150Z,98592.41
2022-10-05T00:45:51.586Z,98595.28
2022-10-05T00:48:10.950Z,98594.94
2022-10-05T00:50:18.200Z,98594.94
2022-10-05T00:52:48.837Z,98586.03
2022-10-05T00:55:09.970Z,98589.88
2022-10-05T00:57:24.079Z,98598.66
2022-10-05T00:59:37.737Z,98598.66
2022-10-05T01:01:55.911Z,98601.34
2022-10-05T01:04:06.599Z,98600.31
2022-10-05T01:06:25.563Z,98596.66
2022-10-05T01:08:38.744Z,98599.34
2022-10-05T01:10:40.383Z,98603.72
2022-10-05T01:13:11.241Z,98595.78
2022-10-05T01:15:21.576Z,98599.50
2022-10-05T01:17:43.367Z,98606.88
2022-10-05T01:20:08.125Z,98609.09
2022-10-05T01:22:17.737Z,98603.00
2022-10-05T01:24:58.250Z,98607.41
2022-10-05T01:27:14.209Z,98606.72
2022-10-05T01:29:44.027Z,98607.56
2022-10-05T01:31:51.709Z,98598.66
2022-10-05T01:34:11.643Z,98604.03
2022-10-05T01:36:25.711Z,98600.66
2022-10-05T01:38:51.699Z,98596.94
2022-10-05T01:41:26.041Z,98602.31
2022-10-05T01:43:34.450Z,98601.34
2022-10-05T01:45:58.637Z,98605.72
2022-10-05T01:48:21.149Z,98605.00
2022-10-05T01:50:26.450Z,98600.66
2022-10-05T01:52:30.729Z,98605.00
2022-10-05T01:54:32.214Z,98602.31
2022-10-05T01:56:46.990Z,98604.88
2022-10-05T01:59:19.277Z,98598.94
2022-10-05T02:01:53.221Z,98611.72
2022-10-05T02:04:01.545Z,98615.06
2022-10-05T02:06:15.119Z,98611.56
2022-10-05T02:08:44.099Z,98608.03
2022-10-05T02:10:55.663Z,98609.03
2022-10-05T02:13:17.489Z,98607.19
2022-10-05T02:15:22.665Z,98610.72
2022-10-05T02:17:30.954Z,98602.66
2022-10-05T02:19:41.069Z,98617.09
2022-10-05T02:21:44.594Z,98611.72
2022-10-05T02:23:46.277Z,98617.09
2022-10-05T02:25:48.066Z,98607.47
2022-10-05T02:27:57.049Z,98616.41
2022-10-05T02:30:01.860Z,98610.34
2022-10-05T02:32:25.240Z,98613.72
2022-10-05T02:34:28.630Z,98621.94
2022-10-05T02:36:33.402Z,98615.72
2022-10-05T02:38:41.951Z,98618.22
2022-10-05T02:41:04.828Z,98618.41
2022-10-05T02:43:15.467Z,98620.41
2022-10-05T02:45:23.612Z,98621.09
2022-10-05T02:47:33.270Z,98623.09
2022-10-05T02:50:04.072Z,98619.38
2022-10-05T02:52:13.408Z,98617.72
2022-10-05T02:54:23.833Z,98618.56
2022-10-05T02:56:40.046Z,98624.78
2022-10-05T02:58:45.412Z,98623.09
2022-10-05T03:01:00.569Z,98618.41
2022-10-05T03:03:11.103Z,98622.25
2022-10-05T03:05:35.544Z,98626.25
2022-10-05T03:08:06.683Z,98627.09
2022-10-05T03:10:12.466Z,98626.69
2022-10-05T03:12:26.381Z,98628.00
2022-10-05T03:15:12.378Z,98628.00
2022-10-05T03:17:17.290Z,98628.31
2022-10-05T03:19:43.450Z,98626.31
2022-10-05T03:21:53.961Z,98630.00
2022-10-05T03:24:03.181Z,98630.00
2022-10-05T03:26:34.298Z,98633.69
2022-10-05T03:28:56.970Z,98633.97
2022-10-05T03:31:20.118Z,98636.38
2022-10-05T03:33:52.484Z,98635.38
2022-10-05T03:36:08.407Z,98637.91
2022-10-05T03:38:18.241Z,98643.44
2022-10-05T03:40:36.918Z,98637.47
2022-10-05T03:42:56.505Z,98637.78
2022-10-05T03:45:12.885Z,98640.16
2022-10-05T03:47:23.259Z,98641.16
2022-10-05T03:49:52.474Z,98641.75
2022-10-05T03:52:17.044Z,98642.47
2022-10-05T03:54:40.386Z,98640.16
2022-10-05T03:57:06.902Z,98645.16
2022-10-05T03:59:13.545Z,98639.06
2022-10-05T04:01:17.384Z,98638.38
2022-10-05T04:03:20.545Z,98641.34
2022-10-05T04:05:30.011Z,98648.72
2022-10-05T04:07:45.527Z,98647.00
2022-10-05T04:09:47.216Z,98651.53
2022-10-05T04:12:01.052Z,98651.72
2022-10-05T04:14:23.557Z,98641.81
2022-10-05T04:16:30.503Z,98648.28
2022-10-05T04:18:38.736Z,98650.31
2022-10-05T04:20:43.834Z,98651.59
2022-10-05T04:23:11.501Z,98646.06
2022-10-05T04:25:27.034Z,98648.91
2022-10-05T04:27:33.118Z,98645.66
2022-10-05T04:29:34.941Z,98649.50
2022-10-05T04:31:36.563Z,98655.13
2022-10-05T04:33:38.358Z,98657.34
2022-10-05T04:36:11.951Z,98660.38
2022-10-05T04:38:37.277Z,98659.81
2022-10-05T04:40:47.882Z,98659.56
2022-10-05T04:43:15.453Z,98661.84
2022-10-05T04:45:46.078Z,98668.50
2022-10-05T04:47:55.172Z,98661.47
2022-10-05T04:50:28.646Z,98670.69
2022-10-05T04:52:35.954Z,98663.75
2022-10-05T04:54:42.585Z,98660.06
2022-10-05T04:57:02.113Z,98664.59
2022-10-05T04:59:25.408Z,98674.38
2022-10-05T05:01:50.072Z,98676.19
2022-10-05T05:04:00.361Z,98678.50
2022-10-05T05:06:21.839Z,98676.81
2022-10-05T05:08:48.613Z,98678.50
2022-10-05T05:10:58.777Z,98675.94
2022-10-05T05:13:06.262Z,98677.97
2022-10-05T05:15:34.876Z,98681.31
2022-10-05T05:17:48.802Z,98667.59
2022-10-05T05:20:02.676Z,98665.19
2022-10-05T05:22:11.984Z,98670.13
2022-10-05T05:24:16.449Z,98675.13
2022-10-05T05:26:40.725Z,98659.81
2022-10-05T05:28:58.968Z,98670.75
2022-10-05T05:31:26.434Z,98670.44
2022-10-05T05:33:52.822Z,98667.03
2022-10-05T05:36:12.996Z,98660.69
2022-10-05T05:38:39.243Z,98667.88
2022-10-05T05:41:10.098Z,98669.03
2022-10-05T05:43:29.147Z,98669.75
2022-10-05T05:45:52.740Z,98672.59
2022-10-05T05:47:54.520Z,98678.81
2022-10-05T05:50:20.025Z,98680.81
2022-10-05T05:52:42.287Z,98680.94
2022-10-05T05:54:52.145Z,98679.13
2022-10-05T05:56:58.975Z,98680.94
2022-10-05T05:59:25.427Z,98682.78
2022-10-05T06:01:33.604Z,98684.94
2022-10-05T06:03:58.980Z,98689.63
2022-10-05T06:06:10.073Z,98695.00
2022-10-05T06:08:32.527Z,98697.13
2022-10-05T06:10:36.596Z,98689.75
2022-10-05T06:12:40.555Z,98706.88
2022-10-05T06:14:50.816Z,98691.44
2022-10-05T06:16:59.769Z,98702.50
2022-10-05T06:19:12.460Z,98698.41
2022-10-05T06:21:28.747Z,98705.50
2022-10-05T06:23:40.820Z,98705.50
2022-10-05T06:25:54.469Z,98703.25
2022-10-05T06:28:12.594Z,98716.06
2022-10-05T06:30:15.327Z,98714.84
2022-10-05T06:32:25.960Z,98715.97
2022-10-05T06:34:47.700Z,98712.47
2022-10-05T06:36:51.143Z,98728.41
2022-10-05T06:39:21.584Z,98727.13
2022-10-05T06:41:42.986Z,98725.59
2022-10-05T06:43:56.821Z,98729.56
2022-10-05T06:46:24.276Z,98738.63
2022-10-05T06:48:47.349Z,98737.63
2022-10-05T06:50:57.974Z,98736.06
2022-10-05T06:53:13.055Z,98741.44
2022-10-05T06:55:20.741Z,98739.59
2022-10-05T06:57:31.064Z,98747.38
2022-10-05T06:59:50.462Z,98744.00
2022-10-05T07:01:57.727Z,98749.38
2022-10-05T07:04:17.679Z,98743.44
2022-10-05T07:06:25.290Z,98753.03
2022-10-05T07:09:06.727Z,98756.19
2022-10-05T07:11:13.208Z,98757.31
2022-10-05T07:13:33.494Z,98763.25
2022-10-05T07:15:45.281Z,98759.31
2022-10-05T07:18:17.936Z,98762.53
2022-10-05T07:20:28.200Z,98766.06
2022-10-05T07:23:02.112Z,98769.75
2022-10-05T07:25:13.450Z,98773.72
2022-10-05T07:27:19.694Z,98771.75
2022-10-05T07:29:58.958Z,98770.06
2022-10-05T07:32:35.733Z,98770.19
2022-10-05T07:34:58.473Z,98775.44
2022-10-05T07:37:03.203Z,98777.69
2022-10-05T07:39:21.091Z,98779.22
2022-10-05T07:41:42.254Z,98781.91
2022-10-05T07:44:02.527Z,98781.06
2022-10-05T07:46:37.645Z,98789.31
2022-10-05T07:48:51.111Z,98793.81
2022-10-05T07:51:03.192Z,98790.13
2022-10-05T07:53:34.085Z,98790.13
2022-10-05T07:55:45.273Z,98800.03
2022-10-05T07:57:56.202Z,98802.72
2022-10-05T08:00:01.814Z,98804.28
2022-10-05T08:02:12.583Z,98801.19
2022-10-05T08:04:27.890Z,98806.56
2022-10-05T08:06:33.627Z,98804.00
2022-10-05T08:09:16.762Z,98809.91
2022-10-05T08:11:22.164Z,98809.91
2022-10-05T08:15:38.930Z,98823.78
2022-10-05T08:17:46.048Z,98817.00
2022-10-05T08:19:50.840Z,98815.28
2022-10-05T08:22:06.521Z,98820.97
2022-10-05T08:24:13.991Z,98818.97
2022-10-05T08:26:23.717Z,98825.34
2022-10-05T08:28:35.929Z,98820.66
2022-10-05T08:30:53.880Z,98826.03
2022-10-05T08:33:07.860Z,98828.19
2022-10-05T08:35:27.666Z,98828.88
2022-10-05T08:37:37.738Z,98826.03
2022-10-05T08:39:40.713Z,98831.41
2022-10-05T08:41:58.029Z,98824.34
2022-10-05T08:44:36.766Z,98835.09
2022-10-05T08:47:04.349Z,98836.78
2022-10-05T08:49:14.829Z,98838.50
2022-10-05T08:51:38.019Z,98837.66
2022-10-05T08:53:57.879Z,98832.81
2022-10-05T08:56:22.295Z,98834.09
2022-10-05T08:58:32.768Z,98834.78
2022-10-05T09:00:45.987Z,98839.47
2022-10-05T09:03:19.276Z,98829.44
2022-10-05T09:05:34.392Z,98837.50
2022-10-05T09:08:12.311Z,98845.28
2022-10-05T09:10:51.261Z,98845.53
2022-10-05T09:12:52.864Z,98837.06
2022-10-05T09:15:25.729Z,98838.50
2022-10-05T09:17:40.105Z,98851.75
2022-10-05T09:20:04.548Z,98850.78
2022-10-05T09:22:21.567Z,98852.06
2022-10-05T09:24:27.014Z,98852.22
2022-10-05T09:26:40.775Z,98855.03
2022-10-05T09:28:55.918Z,98866.50
2022-10-05T09:31:09.664Z,98870.16
2022-10-05T09:33:27.370Z,98872.41
2022-10-05T09:36:05.220Z,98887.38
2022-10-05T09:40:29.652Z,98890.50
2022-10-05T09:42:31.313Z,98881.75
2022-10-05T09:44:47.743Z,98881.19
2022-10-05T09:47:07.783Z,98899.00
2022-10-05T09:49:32.882Z,98896.31
2022-10-05T09:52:15.145Z,98887.97
2022-10-05T09:54:35.501Z,98893.47
2022-10-05T09:57:10.738Z,98889.13
2022-10-05T09:59:36.545Z,98894.75
2022-10-05T10:01:47.533Z,98897.31
2022-10-05T10:04:11.555Z,98899.84
2022-10-05T10:06:24.859Z,98894.19
2022-10-05T10:08:32.428Z,98894.19
2022-10-05T10:10:39.992Z,98898.72
2022-10-05T10:13:12.618Z,98907.75
2022-10-05T10:15:41.768Z,98900.69
2022-10-05T10:18:21.977Z,98911.44
2022-10-05T10:20:33.496Z,98900.69
2022-10-05T10:22:43.276Z,98907.03
2022-10-05T10:25:17.102Z,98896.31
2022-10-05T10:28:00.079Z,98900.56
2022-10-05T10:30:40.803Z,98906.63
2022-10-05T10:33:16.225Z,98911.16
2022-10-05T10:35:22.674Z,98916.41
2022-10-05T10:38:01.799Z,98920.75
2022-10-05T10:40:25.274Z,98914.00
2022-10-05T10:42:32.707Z,98924.75
2022-10-05T10:44:37.866Z,98921.47
2022-10-05T10:46:58.013Z,98920.34
2022-10-05T10:49:21.121Z,98924.03
2022-10-05T10:52:00.024Z,98926.00
2022-10-05T10:54:04.380Z,98927.84
2022-10-05T10:56:05.957Z,98930.69
2022-10-05T10:58:35.892Z,98919.63
2022-10-05T11:01:04.875Z,98922.19
2022-10-05T11:03:21.612Z,98921.34
2022-10-05T11:06:00.715Z,98932.63
2022-10-05T11:08:27.722Z,98927.25
2022-10-05T11:10:37.551Z,98928.41
2022-10-05T11:12:48.622Z,98946.66
2022-10-05T11:15:06.826Z,98942.38
2022-10-05T11:17:14.573Z,98943.38
2022-10-05T11:20:02.453Z,98947.06
2022-10-05T11:22:21.042Z,98959.50
2022-10-05T11:24:32.841Z,98953.13
2022-10-05T11:27:00.650Z,98960.09
2022-10-05T11:29:20.791Z,98968.97
2022-10-05T11:31:40.971Z,98964.88
2022-10-05T11:34:07.350Z,98975.75
2022-10-05T11:36:14.050Z,98976.34
2022-10-05T11:38:31.875Z,98971.25
2022-10-05T11:40:39.611Z,98974.91
2022-10-05T11:42:47.273Z,98974.06
2022-10-05T11:45:22.137Z,98983.97
2022-10-05T11:47:57.500Z,98985.53
2022-10-05T11:50:17.661Z,98991.88
2022-10-05T11:52:37.984Z,98987.78
2022-10-05T11:55:10.319Z,98988.63
2022-10-05T11:57:40.861Z,99003.59
2022-10-05T11:59:56.740Z,99006.16
2022-10-05T12:02:14.627Z,99009.09
2022-10-05T12:04:47.012Z,99011.78
2022-10-05T12:06:54.168Z,99001.94
2022-10-05T12:09:13.669Z,99004.28
2022-10-05T12:11:26.716Z,99010.25
2022-10-05T12:13:28.400Z,99001.34
2022-10-05T12:15:56.785Z,99006.09
2022-10-05T12:18:05.007Z,99011.34
2022-10-05T12:20:18.951Z,99005.00
2022-10-05T12:22:34.244Z,99016.72
2022-10-05T12:24:35.944Z,99014.63
2022-10-05T12:26:42.957Z,99015.59
2022-10-05T12:28:50.260Z,99020.97
2022-10-05T12:31:08.097Z,99023.78
2022-10-05T12:33:17.275Z,99014.63
2022-10-05T12:35:43.822Z,99018.03
2022-10-05T12:38:12.124Z,99026.22
2022-10-05T12:40:28.100Z,99023.13
2022-10-05T12:42:48.218Z,99027.91
2022-10-05T12:44:56.250Z,99022.53
2022-10-05T12:47:27.645Z,99024.25
2022-10-05T12:49:38.577Z,99035.84
2022-10-05T12:52:05.649Z,99030.75
2022-10-05T12:54:43.887Z,99036.97
2022-10-05T12:57:04.027Z,99043.19
2022-10-05T12:59:14.889Z,99033.28
2022-10-05T13:01:40.722Z,99024.25
2022-10-05T13:04:00.146Z,99025.66
2022-10-05T13:06:27.670Z,99022.53
2022-10-05T13:08:32.494Z,99023.84
2022-10-05T13:10:41.141Z,99030.34
2022-10-05T13:12:45.654Z,99029.50
2022-10-05T13:14:59.427Z,99029.09
2022-10-05T13:17:13.201Z,99033.47
2022-10-05T13:19:17.598Z,99033.34
2022-10-05T13:21:19.949Z,99036.88
2022-10-05T13:23:59.033Z,99037.84
2022-10-05T13:26:07.565Z,99044.91
2022-10-05T13:28:24.116Z,99038.13
2022-10-05T13:30:26.185Z,99046.19
2022-10-05T13:32:33.658Z,99051.84
2022-10-05T13:35:11.401Z,99052.81
2022-10-05T13:37:49.509Z,99056.50
2022-10-05T13:40:12.891Z,99061.16
2022-10-05T13:42:35.139Z,99053.69
2022-10-05T13:44:46.876Z,99054.97
2022-10-05T13:46:58.327Z,99054.53
2022-10-05T13:49:20.617Z,99062.22
2022-10-05T13:51:28.296Z,99058.41
2022-10-05T13:54:15.457Z,99059.34
2022-10-05T13:56:25.349Z,99064.16
2022-10-05T13:58:45.747Z,99057.78
2022-10-05T14:00:55.903Z,99068.53
2022-10-05T14:02:57.803Z,99068.00
2022-10-05T14:05:02.263Z,99075.22
2022-10-05T14:07:23.976Z,99068.13
2022-10-05T14:09:30.375Z,99081.56
2022-10-05T14:11:35.858Z,99083.72
2022-10-05T14:13:45.211Z,99079.06
2022-10-05T14:15:58.657Z,99084.53
2022-10-05T14:18:01.096Z,99093.03
2022-10-05T14:20:16.300Z,99088.06
2022-10-05T14:22:22.731Z,99085.66
2022-10-05T14:24:44.175Z,99104.44
2022-10-05T14:26:53.505Z,99090.69
2022-10-05T14:29:00.097Z,99100.47
2022-10-05T14:31:19.232Z,99101.28
2022-10-05T14:33:21.526Z,99097.06
2022-10-05T14:35:25.275Z,99101.13
2022-10-05T14:37:32.717Z,99102.22
2022-10-05T14:39:34.690Z,99104.25
2022-10-05T14:41:37.066Z,99107.59
2022-10-05T14:43:38.920Z,99107.34
2022-10-05T14:46:14.762Z,99119.78
2022-10-05T14:48:16.757Z,99121.59
2022-10-05T14:50:21.149Z,99122.56
2022-10-05T14:52:32.358Z,99115.28
2022-10-05T14:54:52.106Z,99110.88
2022-10-05T14:57:05.744Z,99118.06
2022-10-05T14:59:30.056Z,99120.63
2022-10-05T15:01:33.359Z,99128.19
2022-10-05T15:04:04.358Z,99116.97
2022-10-05T15:06:07.406Z,99132.91
2022-10-05T15:08:48.849Z,99131.03
2022-10-05T15:11:00.850Z,99133.44
2022-10-05T15:13:12.557Z,99138.84
2022-10-05T15:15:14.614Z,99129.78
2022-10-05T15:17:27.262Z,99141.66
2022-10-05T15:19:38.781Z,99145.94
2022-10-05T15:21:52.868Z,99139.59
2022-10-05T15:24:02.457Z,99141.44
2022-10-05T15:26:29.495Z,99147.94
2022-10-05T15:28:40.816Z,99149.94
2022-10-05T15:30:55.900Z,99156.56
2022-10-05T15:33:23.335Z,99155.41
2022-10-05T15:35:34.819Z,99151.00
2022-10-05T15:37:48.059Z,99147.69
2022-10-05T15:40:05.495Z,99153.19
2022-10-05T15:42:11.506Z,99154.28
2022-10-05T15:44:30.295Z,99160.81
2022-10-05T15:46:40.548Z,99163.22
2022-10-05T15:48:48.820Z,99165.63
2022-10-05T15:50:50.736Z,99169.59
2022-10-05T15:52:52.865Z,99178.69
2022-10-05T15:55:09.225Z,99175.81
2022-10-05T15:57:34.484Z,99173.00
2022-10-05T15:59:38.861Z,99184.13
2022-10-05T16:01:58.714Z,99180.69
2022-10-05T16:04:15.741Z,99185.81
2022-10-05T16:06:28.153Z,99181.81
2022-10-05T16:08:33.053Z,99181.91
2022-10-05T16:10:38.348Z,99185.13
2022-10-05T16:12:48.428Z,99197.97
2022-10-05T16:15:17.899Z,99181.81
2022-10-05T16:17:45.477Z,99171.06
2022-10-05T16:19:47.329Z,99183.06
2022-10-05T16:21:54.302Z,99186.00
2022-10-05T16:24:17.571Z,99182.06
2022-10-05T16:26:37.480Z,99181.56
2022-10-05T16:28:52.122Z,99184.78
2022-10-05T16:31:06.030Z,99182.97
2022-10-05T16:34:00.622Z,99178.88
2022-10-05T16:36:16.448Z,99176.63
2022-10-05T16:38:30.310Z,99180.03
2022-10-05T16:40:50.580Z,99178.97
2022-10-05T16:43:01.038Z,99180.84
2022-10-05T16:45:44.445Z,99186.19
2022-10-05T16:47:50.371Z,99176.09
2022-10-05T16:50:18.164Z,99186.28
2022-10-05T16:52:19.893Z,99180.84
2022-10-05T16:54:38.179Z,99185.91
2022-10-05T16:56:43.345Z,99179.56
2022-10-05T16:59:26.633Z,99179.72
2022-10-05T17:01:52.117Z,99196.38
2022-10-05T17:03:54.239Z,99194.31
2022-10-05T17:05:56.885Z,99197.47
2022-10-05T17:08:14.989Z,99201.56
2022-10-05T17:10:35.486Z,99213.94
2022-10-05T17:12:43.672Z,99214.75
2022-10-05T17:15:05.265Z,99208.59
2022-10-05T17:17:22.542Z,99205.19
2022-10-05T17:19:43.210Z,99209.19
2022-10-05T17:21:57.435Z,99215.59
2022-10-05T17:24:11.777Z,99214.09
2022-10-05T17:26:53.762Z,99210.88
2022-10-05T17:29:15.584Z,99212.03
2022-10-05T17:31:18.875Z,99219.44
2022-10-05T17:33:21.053Z,99216.03
2022-10-05T17:35:52.383Z,99216.41
2022-10-05T17:38:15.904Z,99214.03
2022-10-05T17:40:30.249Z,99214.38
2022-10-05T17:42:31.952Z,99218.75
2022-10-05T17:44:33.883Z,99215.41
2022-10-05T17:46:47.635Z,99217.47
2022-10-05T17:48:49.555Z,99225.06
2022-10-05T17:50:51.280Z,99230.31
2022-10-05T17:53:25.153Z,99226.06
2022-10-05T17:55:45.728Z,99242.13
2022-10-05T17:57:47.654Z,99229.13
2022-10-05T17:59:55.997Z,99235.75
2022-10-05T18:02:21.207Z,99237.28
2022-10-05T18:04:29.427Z,99237.72
2022-10-05T18:06:35.159Z,99243.41
2022-10-05T18:08:37.608Z,99241.56
2022-10-05T18:11:19.783Z,99237.16
2022-10-05T18:14:11.842Z,99237.16
2022-10-05T18:16:13.649Z,99234.34
2022-10-05T18:18:36.327Z,99236.59
2022-10-05T18:20:38.020Z,99243.13
2022-10-05T18:22:40.338Z,99234.88
2022-10-05T18:25:00.734Z,99245.09
2022-10-05T18:27:14.380Z,99250.59
2022-10-05T18:29:42.521Z,99251.84
2022-10-05T18:31:49.748Z,99249.16
2022-10-05T18:34:18.516Z,99255.25
2022-10-05T18:36:41.869Z,99250.16
2022-10-05T18:38:55.811Z,99254.97
2022-10-05T18:41:24.375Z,99254.72
2022-10-05T18:43:35.347Z,99253.28
2022-10-05T18:46:13.843Z,99253.88
2022-10-05T18:48:15.634Z,99255.84
2022-10-05T18:50:28.726Z,99260.50
2022-10-05T18:53:00.332Z,99256.09
2022-10-05T18:55:30.979Z,99259.91
2022-10-05T18:57:45.949Z,99260.34
2022-10-05T18:59:54.624Z,99259.38
2022-10-05T19:01:59.033Z,99265.88
2022-10-05T19:04:34.277Z,99263.03
2022-10-05T19:06:38.861Z,99257.66
2022-10-05T19:09:05.292Z,99259.66
2022-10-05T19:11:15.937Z,99257.81
2022-10-05T19:13:23.993Z,99264.31
2022-10-05T19:15:54.506Z,99264.31
2022-10-05T19:18:06.929Z,99261.88
2022-10-05T19:20:41.825Z,99259.19
2022-10-05T19:22:48.162Z,99261.34
2022-10-05T19:24:52.698Z,99266.59
2022-10-05T19:27:15.600Z,99261.19
2022-10-05T19:29:38.090Z,99266.59
2022-10-05T19:31:56.824Z,99268.28
2022-10-05T19:34:01.559Z,99264.88
2022-10-05T19:36:37.000Z,99263.16
2022-10-05T19:38:57.147Z,99263.16
2022-10-05T19:41:17.387Z,99267.56
2022-10-05T19:43:34.142Z,99272.19
2022-10-05T19:46:09.592Z,99271.97
2022-10-05T19:48:30.440Z,99272.19
2022-10-05T19:50:33.739Z,99275.03
2022-10-05T19:52:44.222Z,99280.66
2022-10-05T19:55:01.281Z,99278.13
2022-10-05T19:57:03.133Z,99264.53
2022-10-05T19:59:12.242Z,99276.84
2022-10-05T20:01:31.626Z,99269.78
2022-10-05T20:03:34.556Z,99269.91
2022-10-05T20:05:36.283Z,99266.25
2022-10-05T20:07:38.070Z,99274.44
2022-10-05T20:10:20.278Z,99269.91
2022-10-05T20:12:22.085Z,99273.00
2022-10-05T20:14:31.249Z,99274.97
2022-10-05T20:16:33.605Z,99269.88
2022-10-05T20:18:44.531Z,99278.78
2022-10-05T20:20:48.651Z,99285.16
2022-10-05T20:22:51.207Z,99277.81
2022-10-05T20:24:54.569Z,99279.38
2022-10-05T20:26:58.879Z,99276.81
2022-10-05T20:29:00.370Z,99282.06
2022-10-05T20:31:02.129Z,99277.13
2022-10-05T20:33:03.952Z,99278.25
2022-10-05T20:35:06.030Z,99285.72
2022-10-05T20:37:11.834Z,99287.88
2022-10-05T20:39:13.545Z,99286.88
2022-10-05T20:41:15.287Z,99290.84
2022-10-05T20:43:16.933Z,99284.88
2022-10-05T20:45:18.715Z,99280.94
2022-10-05T20:47:20.429Z,99287.16
2022-10-05T20:49:22.370Z,99287.44
2022-10-05T20:51:24.138Z,99285.72
2022-10-05T20:53:25.815Z,99288.28
2022-10-05T20:55:27.474Z,99285.72
2022-10-05T20:57:29.120Z,99294.06
2022-10-05T20:59:30.812Z,99289.41
2022-10-05T21:01:32.575Z,99290.53
2022-10-05T21:03:34.386Z,99284.16
2022-10-05T21:05:36.361Z,99283.44
2022-10-05T21:07:38.070Z,99286.59
2022-10-05T21:09:39.759Z,99286.59
2022-10-05T21:11:42.171Z,99282.47
2022-10-05T21:13:43.877Z,99277.22
2022-10-05T21:15:45.583Z,99286.84
2022-10-05T21:17:47.237Z,99287.72
2022-10-05T21:19:48.920Z,99287.56
2022-10-05T21:21:50.634Z,99293.34
2022-10-05T21:23:52.385Z,99291.94
2022-10-05T21:25:54.137Z,99284.56
2022-10-05T21:27:55.982Z,99296.44
2022-10-05T21:29:57.720Z,99288.38
2022-10-05T21:31:59.605Z,99287.41
2022-10-05T21:34:01.385Z,99285.44
2022-10-05T21:36:03.097Z,99289.50
2022-10-05T21:38:04.758Z,99291.94
2022-10-05T21:40:06.707Z,99298.41
2022-10-05T21:42:08.482Z,99299.84
2022-10-05T21:44:10.177Z,99289.38
2022-10-05T21:46:12.815Z,99302.69
2022-10-05T21:48:15.062Z,99307.19
2022-10-05T21:50:16.809Z,99319.09
2022-10-05T21:52:18.522Z,99314.53
2022-10-05T21:54:21.144Z,99306.34
2022-10-05T21:56:23.597Z,99314.13
2022-10-05T21:58:25.673Z,99311.44
2022-10-05T22:00:27.606Z,99318.84
2022-10-05T22:02:29.292Z,99317.09
2022-10-05T22:04:31.063Z,99325.28
2022-10-05T22:06:33.308Z,99321.75
2022-10-05T22:08:35.219Z,99322.16
2022-10-05T22:10:37.029Z,99332.06
2022-10-05T22:12:38.776Z,99330.50
2022-10-05T22:14:40.493Z,99327.81
2022-10-05T22:16:42.347Z,99328.66
2022-10-05T22:18:44.160Z,99327.16
2022-10-05T22:20:46.001Z,99329.25
2022-10-05T22:22:47.771Z,99338.19
2022-10-05T22:24:49.892Z,99337.31
2022-10-05T22:26:51.605Z,99338.56
2022-10-05T22:28:53.350Z,99334.75
2022-10-05T22:30:55.060Z,99339.41
2022-10-05T22:32:56.759Z,99334.75
2022-10-05T22:34:58.509Z,99332.19
2022-10-05T22:37:00.544Z,99328.38
2022-10-05T22:39:02.277Z,99340.97
2022-10-05T22:41:04.037Z,99336.31
2022-10-05T22:43:05.762Z,99326.69
2022-10-05T22:45:08.333Z,99330.38
2022-10-05T22:47:09.978Z,99330.38
2022-10-05T22:49:11.713Z,99329.78
2022-10-05T22:51:13.383Z,99332.34
2022-10-05T22:53:15.086Z,99330.63
2022-10-05T22:55:16.787Z,99339.53
2022-10-05T22:57:18.638Z,99333.75
2022-10-05T22:59:20.371Z,99337.19
2022-10-05T23:01:22.132Z,99337.19
2022-10-05T23:03:23.982Z,99327.16
2022-10-05T23:05:25.750Z,99329.97
2022-10-05T23:07:27.546Z,99327.53
2022-10-05T23:09:29.193Z,99323.00
2022-10-05T23:11:30.929Z,99324.72
2022-10-05T23:13:32.713Z,99324.00
2022-10-05T23:15:34.696Z,99326.69
2022-10-05T23:17:36.395Z,99321.31
2022-10-05T23:19:38.103Z,99316.94
2022-10-05T23:21:39.903Z,99319.63
2022-10-05T23:23:43.087Z,99325.00
2022-10-05T23:25:44.757Z,99326.81
2022-10-05T23:27:46.486Z,99323.41
2022-10-05T23:29:48.255Z,99322.31
2022-10-05T23:31:49.901Z,99328.66
2022-10-05T23:33:52.341Z,99326.25
2022-10-05T23:36:01.614Z,99328.94
2022-10-05T23:38:03.268Z,99325.13
2022-10-05T23:40:06.858Z,99331.22
2022-10-05T23:42:08.600Z,99330.38
2022-10-05T23:44:10.321Z,99332.78
2022-10-05T23:46:12.247Z,99326.69
2022-10-05T23:48:14.123Z,99327.69
2022-10-05T23:50:15.894Z,99339.13
2022-10-05T23:52:17.669Z,99341.97
2022-10-05T23:54:19.319Z,99344.78
2022-10-05T23:56:21.074Z,99342.09
2022-10-05T23:58:23.102Z,99335.75
